sensor_id;sensor_type;location;lat;lon;timestamp;pressure;altitude;pressure_sealevel;temperature;humidity
75555;BME280;66087;53.126;17.960;2024-03-23T00:53:49;99943.13;;;8.76;94.33
75555;BME280;66087;53.126;17.960;2024-03-23T00:56:16;99935.83;;;8.77;94.17
75555;BME280;66087;53.126;17.960;2024-03-23T00:58:42;99936.23;;;8.76;93.67
75555;BME280;66087;53.126;17.960;2024-03-23T01:01:09;99941.15;;;8.73;93.16
75555;BME280;66087;53.126;17.960;2024-03-23T01:03:35;99941.10;;;8.71;93.01
75555;BME280;66087;53.126;17.960;2024-03-23T01:06:03;99939.09;;;8.71;93.04
75555;BME280;66087;53.126;17.960;2024-03-23T01:08:30;99942.98;;;8.71;92.58
75555;BME280;66087;53.126;17.960;2024-03-23T01:10:59;99942.21;;;8.70;92.52
75555;BME280;66087;53.126;17.960;2024-03-23T01:13:27;99944.71;;;8.70;92.41
75555;BME280;66087;53.126;17.960;2024-03-23T01:15:55;99947.04;;;8.69;92.10
75555;BME280;66087;53.126;17.960;2024-03-23T01:18:23;99950.02;;;8.66;91.90
75555;BME280;66087;53.126;17.960;2024-03-23T01:20:50;99947.95;;;8.66;92.00
75555;BME280;66087;53.126;17.960;2024-03-23T01:23:17;99948.27;;;8.64;91.92
75555;BME280;66087;53.126;17.960;2024-03-23T01:25:52;99946.35;;;8.64;91.85
75555;BME280;66087;53.126;17.960;2024-03-23T01:28:20;99948.89;;;8.64;92.04
75555;BME280;66087;53.126;17.960;2024-03-23T01:30:48;99945.16;;;8.65;92.01
75555;BME280;66087;53.126;17.960;2024-03-23T01:33:15;99936.56;;;8.66;91.89
75555;BME280;66087;53.126;17.960;2024-03-23T01:35:41;99935.16;;;8.66;91.99
75555;BME280;66087;53.126;17.960;2024-03-23T01:38:08;99943.29;;;8.66;91.99
75555;BME280;66087;53.126;17.960;2024-03-23T01:40:35;99938.40;;;8.62;91.89
75555;BME280;66087;53.126;17.960;2024-03-23T01:43:04;99933.50;;;8.58;92.13
75555;BME280;66087;53.126;17.960;2024-03-23T01:45:31;99934.19;;;8.55;92.36
75555;BME280;66087;53.126;17.960;2024-03-23T01:47:59;99931.39;;;8.50;92.50
75555;BME280;66087;53.126;17.960;2024-03-23T01:50:28;99934.46;;;8.46;92.75
75555;BME280;66087;53.126;17.960;2024-03-23T01:53:01;99926.46;;;8.37;92.98
75555;BME280;66087;53.126;17.960;2024-03-23T01:55:29;99932.50;;;8.42;93.14
75555;BME280;66087;53.126;17.960;2024-03-23T01:57:57;99929.57;;;8.42;92.90
75555;BME280;66087;53.126;17.960;2024-03-23T02:00:25;99930.41;;;8.43;92.84
75555;BME280;66087;53.126;17.960;2024-03-23T02:02:54;99930.90;;;8.42;92.84
75555;BME280;66087;53.126;17.960;2024-03-23T02:05:22;99932.55;;;8.40;92.48
75555;BME280;66087;53.126;17.960;2024-03-23T02:07:49;99925.90;;;8.39;92.62
75555;BME280;66087;53.126;17.960;2024-03-23T02:10:18;99912.30;;;8.32;92.53
75555;BME280;66087;53.126;17.960;2024-03-23T02:12:45;99923.86;;;8.36;92.47
75555;BME280;66087;53.126;17.960;2024-03-23T02:15:12;99921.66;;;8.34;92.43
75555;BME280;66087;53.126;17.960;2024-03-23T02:17:42;99920.27;;;8.33;92.17
75555;BME280;66087;53.126;17.960;2024-03-23T02:20:11;99917.43;;;8.31;91.94
75555;BME280;66087;53.126;17.960;2024-03-23T02:22:39;99909.88;;;8.29;91.61
75555;BME280;66087;53.126;17.960;2024-03-23T02:25:07;99908.17;;;8.28;91.39
75555;BME280;66087;53.126;17.960;2024-03-23T02:27:34;99907.52;;;8.25;91.23
75555;BME280;66087;53.126;17.960;2024-03-23T02:30:02;99902.45;;;8.24;91.22
75555;BME280;66087;53.126;17.960;2024-03-23T02:32:29;99899.75;;;8.22;91.27
75555;BME280;66087;53.126;17.960;2024-03-23T02:34:56;99889.39;;;8.22;91.29
75555;BME280;66087;53.126;17.960;2024-03-23T02:37:23;99889.08;;;8.21;91.34
75555;BME280;66087;53.126;17.960;2024-03-23T02:39:50;99889.92;;;8.22;91.48
75555;BME280;66087;53.126;17.960;2024-03-23T02:42:17;99888.21;;;8.22;91.54
75555;BME280;66087;53.126;17.960;2024-03-23T02:44:44;99884.58;;;8.23;91.49
75555;BME280;66087;53.126;17.960;2024-03-23T02:47:12;99881.09;;;8.24;91.50
75555;BME280;66087;53.126;17.960;2024-03-23T02:49:39;99870.41;;;8.18;91.48
75555;BME280;66087;53.126;17.960;2024-03-23T02:52:09;99875.48;;;8.25;91.45
75555;BME280;66087;53.126;17.960;2024-03-23T02:54:35;99871.60;;;8.26;91.55
75555;BME280;66087;53.126;17.960;2024-03-23T02:57:02;99866.39;;;8.27;91.56
75555;BME280;66087;53.126;17.960;2024-03-23T02:59:29;99866.00;;;8.28;91.58
75555;BME280;66087;53.126;17.960;2024-03-23T03:01:55;99860.20;;;8.28;91.40
75555;BME280;66087;53.126;17.960;2024-03-23T03:04:22;99851.92;;;8.29;91.30
75555;BME280;66087;53.126;17.960;2024-03-23T03:06:49;99844.95;;;8.29;91.19
75555;BME280;66087;53.126;17.960;2024-03-23T03:09:16;99844.81;;;8.27;90.93
75555;BME280;66087;53.126;17.960;2024-03-23T03:11:43;99847.92;;;8.26;91.16
75555;BME280;66087;53.126;17.960;2024-03-23T03:14:11;99844.38;;;8.25;91.36
75555;BME280;66087;53.126;17.960;2024-03-23T03:16:38;99840.11;;;8.26;91.44
75555;BME280;66087;53.126;17.960;2024-03-23T03:19:04;99841.03;;;8.26;91.23
75555;BME280;66087;53.126;17.960;2024-03-23T03:21:34;99842.43;;;8.26;91.39
75555;BME280;66087;53.126;17.960;2024-03-23T03:24:01;99842.38;;;8.25;91.66
75555;BME280;66087;53.126;17.960;2024-03-23T03:26:28;99840.54;;;8.23;91.53
75555;BME280;66087;53.126;17.960;2024-03-23T03:28:55;99834.71;;;8.20;91.44
75555;BME280;66087;53.126;17.960;2024-03-23T03:31:21;99835.96;;;8.19;91.41
75555;BME280;66087;53.126;17.960;2024-03-23T03:33:49;99838.05;;;8.19;91.56
75555;BME280;66087;53.126;17.960;2024-03-23T03:36:17;99838.31;;;8.18;91.73
75555;BME280;66087;53.126;17.960;2024-03-23T03:38:43;99817.71;;;8.04;91.92
75555;BME280;66087;53.126;17.960;2024-03-23T03:41:10;99835.27;;;8.14;92.19
75555;BME280;66087;53.126;17.960;2024-03-23T03:43:38;99830.91;;;8.11;92.06
75555;BME280;66087;53.126;17.960;2024-03-23T03:46:06;99828.79;;;8.08;92.40
75555;BME280;66087;53.126;17.960;2024-03-23T03:48:34;99826.94;;;8.08;92.46
75555;BME280;66087;53.126;17.960;2024-03-23T03:51:01;99827.27;;;8.06;92.46
75555;BME280;66087;53.126;17.960;2024-03-23T03:53:28;99828.22;;;8.06;92.53
75555;BME280;66087;53.126;17.960;2024-03-23T03:55:56;99819.86;;;8.00;92.64
75555;BME280;66087;53.126;17.960;2024-03-23T03:58:25;99821.28;;;8.03;92.85
75555;BME280;66087;53.126;17.960;2024-03-23T04:00:52;99823.92;;;8.03;92.79
75555;BME280;66087;53.126;17.960;2024-03-23T04:03:19;99828.89;;;8.01;92.64
75555;BME280;66087;53.126;17.960;2024-03-23T04:05:54;99826.73;;;8.00;92.76
75555;BME280;66087;53.126;17.960;2024-03-23T04:08:21;99822.95;;;8.00;92.91
75555;BME280;66087;53.126;17.960;2024-03-23T04:10:49;99817.61;;;8.01;92.95
75555;BME280;66087;53.126;17.960;2024-03-23T04:13:16;99810.31;;;8.02;92.95
75555;BME280;66087;53.126;17.960;2024-03-23T04:15:43;99811.83;;;8.05;92.69
75555;BME280;66087;53.126;17.960;2024-03-23T04:18:12;99817.58;;;8.07;92.53
75555;BME280;66087;53.126;17.960;2024-03-23T04:20:38;99818.17;;;8.09;92.04
75555;BME280;66087;53.126;17.960;2024-03-23T04:23:05;99820.34;;;8.09;91.73
75555;BME280;66087;53.126;17.960;2024-03-23T04:25:32;99819.72;;;8.09;91.45
75555;BME280;66087;53.126;17.960;2024-03-23T04:27:59;99809.83;;;8.09;91.55
75555;BME280;66087;53.126;17.960;2024-03-23T04:30:26;99805.38;;;8.11;91.49
75555;BME280;66087;53.126;17.960;2024-03-23T04:32:55;99806.70;;;8.11;91.39
75555;BME280;66087;53.126;17.960;2024-03-23T04:35:23;99804.40;;;8.09;91.38
75555;BME280;66087;53.126;17.960;2024-03-23T04:37:51;99800.89;;;8.07;91.36
75555;BME280;66087;53.126;17.960;2024-03-23T04:40:19;99788.02;;;7.93;91.30
75555;BME280;66087;53.126;17.960;2024-03-23T04:42:47;99806.45;;;8.02;91.30
75555;BME280;66087;53.126;17.960;2024-03-23T04:45:14;99806.15;;;8.01;91.45
75555;BME280;66087;53.126;17.960;2024-03-23T04:47:43;99804.39;;;8.00;91.31
75555;BME280;66087;53.126;17.960;2024-03-23T04:50:10;99802.11;;;7.98;91.28
75555;BME280;66087;53.126;17.960;2024-03-23T04:52:38;99801.88;;;7.97;91.28
75555;BME280;66087;53.126;17.960;2024-03-23T04:55:05;99808.46;;;7.97;91.26
75555;BME280;66087;53.126;17.960;2024-03-23T04:57:32;99800.48;;;7.97;91.25
75555;BME280;66087;53.126;17.960;2024-03-23T04:59:59;99795.86;;;7.97;91.09
75555;BME280;66087;53.126;17.960;2024-03-23T05:02:26;99786.29;;;7.95;90.88
75555;BME280;66087;53.126;17.960;2024-03-23T05:04:53;99789.89;;;7.92;90.66
75555;BME280;66087;53.126;17.960;2024-03-23T05:07:21;99786.00;;;7.89;90.83
75555;BME280;66087;53.126;17.960;2024-03-23T05:09:47;99786.05;;;7.90;90.94
75555;BME280;66087;53.126;17.960;2024-03-23T05:12:17;99776.78;;;7.89;90.82
75555;BME280;66087;53.126;17.960;2024-03-23T05:14:44;99762.39;;;7.90;90.93
75555;BME280;66087;53.126;17.960;2024-03-23T05:17:11;99764.91;;;7.92;90.83
75555;BME280;66087;53.126;17.960;2024-03-23T05:19:37;99764.35;;;7.94;91.08
75555;BME280;66087;53.126;17.960;2024-03-23T05:22:04;99764.73;;;7.94;91.23
75555;BME280;66087;53.126;17.960;2024-03-23T05:24:32;99766.58;;;7.94;91.49
75555;BME280;66087;53.126;17.960;2024-03-23T05:26:59;99769.86;;;7.97;91.63
75555;BME280;66087;53.126;17.960;2024-03-23T05:29:26;99768.12;;;7.99;91.18
75555;BME280;66087;53.126;17.960;2024-03-23T05:31:53;99762.07;;;8.01;91.15
75555;BME280;66087;53.126;17.960;2024-03-23T05:34:23;99755.95;;;8.01;91.06
75555;BME280;66087;53.126;17.960;2024-03-23T05:36:50;99751.18;;;8.04;90.94
75555;BME280;66087;53.126;17.960;2024-03-23T05:39:20;99754.88;;;8.05;90.78
75555;BME280;66087;53.126;17.960;2024-03-23T05:41:48;99747.16;;;8.04;90.78
75555;BME280;66087;53.126;17.960;2024-03-23T05:44:15;99740.15;;;8.02;90.77
75555;BME280;66087;53.126;17.960;2024-03-23T05:46:42;99734.70;;;8.04;90.77
75555;BME280;66087;53.126;17.960;2024-03-23T05:49:09;99723.92;;;8.10;90.83
75555;BME280;66087;53.126;17.960;2024-03-23T05:51:35;99700.52;;;8.17;90.75
75555;BME280;66087;53.126;17.960;2024-03-23T05:54:02;99706.41;;;8.25;90.74
75555;BME280;66087;53.126;17.960;2024-03-23T05:56:29;99704.64;;;8.34;90.73
75555;BME280;66087;53.126;17.960;2024-03-23T05:58:55;99698.96;;;8.43;90.47
75555;BME280;66087;53.126;17.960;2024-03-23T06:01:22;99682.23;;;8.48;90.16
75555;BME280;66087;53.126;17.960;2024-03-23T06:03:49;99663.95;;;8.53;90.05
75555;BME280;66087;53.126;17.960;2024-03-23T06:06:15;99676.83;;;8.59;89.80
75555;BME280;66087;53.126;17.960;2024-03-23T06:08:43;99701.24;;;8.61;90.04
75555;BME280;66087;53.126;17.960;2024-03-23T06:11:12;99708.54;;;8.61;90.07
75555;BME280;66087;53.126;17.960;2024-03-23T06:13:39;99708.77;;;8.58;89.98
75555;BME280;66087;53.126;17.960;2024-03-23T06:16:05;99710.77;;;8.58;89.81
75555;BME280;66087;53.126;17.960;2024-03-23T06:18:33;99710.27;;;8.56;89.67
75555;BME280;66087;53.126;17.960;2024-03-23T06:21:00;99711.47;;;8.53;89.44
75555;BME280;66087;53.126;17.960;2024-03-23T06:23:29;99708.05;;;8.50;89.17
75555;BME280;66087;53.126;17.960;2024-03-23T06:25:57;99705.90;;;8.45;89.00
75555;BME280;66087;53.126;17.960;2024-03-23T06:28:27;99698.17;;;8.41;89.21
75555;BME280;66087;53.126;17.960;2024-03-23T06:30:53;99698.12;;;8.39;89.18
75555;BME280;66087;53.126;17.960;2024-03-23T06:33:20;99698.64;;;8.37;88.99
75555;BME280;66087;53.126;17.960;2024-03-23T06:35:51;99697.80;;;8.36;89.59
75555;BME280;66087;53.126;17.960;2024-03-23T06:38:18;99701.65;;;8.37;89.74
75555;BME280;66087;53.126;17.960;2024-03-23T06:40:46;99702.17;;;8.37;89.64
75555;BME280;66087;53.126;17.960;2024-03-23T06:43:17;99704.45;;;8.36;89.01
75555;BME280;66087;53.126;17.960;2024-03-23T06:45:44;99704.46;;;8.35;88.68
75555;BME280;66087;53.126;17.960;2024-03-23T06:48:18;99696.23;;;8.33;88.64
75555;BME280;66087;53.126;17.960;2024-03-23T06:50:47;99698.02;;;8.32;88.88
75555;BME280;66087;53.126;17.960;2024-03-23T06:53:14;99698.83;;;8.29;88.66
75555;BME280;66087;53.126;17.960;2024-03-23T06:55:50;99696.46;;;8.27;89.12
75555;BME280;66087;53.126;17.960;2024-03-23T06:58:17;99694.65;;;8.25;89.30
75555;BME280;66087;53.126;17.960;2024-03-23T07:00:43;99693.73;;;8.24;89.37
75555;BME280;66087;53.126;17.960;2024-03-23T07:03:10;99701.45;;;8.21;89.15
75555;BME280;66087;53.126;17.960;2024-03-23T07:05:37;99696.15;;;8.19;89.59
75555;BME280;66087;53.126;17.960;2024-03-23T07:08:05;99691.17;;;8.20;89.75
75555;BME280;66087;53.126;17.960;2024-03-23T07:10:32;99689.44;;;8.22;89.96
75555;BME280;66087;53.126;17.960;2024-03-23T07:12:59;99695.70;;;8.26;90.09
75555;BME280;66087;53.126;17.960;2024-03-23T07:15:25;99704.57;;;8.24;89.79
75555;BME280;66087;53.126;17.960;2024-03-23T07:17:52;99702.45;;;8.21;89.99
75555;BME280;66087;53.126;17.960;2024-03-23T07:20:18;99698.23;;;8.19;89.98
75555;BME280;66087;53.126;17.960;2024-03-23T07:22:46;99684.86;;;8.18;90.13
75555;BME280;66087;53.126;17.960;2024-03-23T07:25:14;99684.34;;;8.21;90.35
75555;BME280;66087;53.126;17.960;2024-03-23T07:27:43;99686.42;;;8.22;90.13
75555;BME280;66087;53.126;17.960;2024-03-23T07:30:10;99683.44;;;8.20;90.17
75555;BME280;66087;53.126;17.960;2024-03-23T07:32:36;99683.54;;;8.18;90.27
75555;BME280;66087;53.126;17.960;2024-03-23T07:35:04;99680.84;;;8.22;90.34
75555;BME280;66087;53.126;17.960;2024-03-23T07:37:32;99674.02;;;8.29;90.18
75555;BME280;66087;53.126;17.960;2024-03-23T07:39:58;99672.79;;;8.32;90.26
75555;BME280;66087;53.126;17.960;2024-03-23T07:42:26;99677.35;;;8.32;90.41
75555;BME280;66087;53.126;17.960;2024-03-23T07:44:53;99680.22;;;8.32;90.67
75555;BME280;66087;53.126;17.960;2024-03-23T07:47:21;99677.96;;;8.33;90.49
75555;BME280;66087;53.126;17.960;2024-03-23T07:49:48;99678.67;;;8.36;90.41
75555;BME280;66087;53.126;17.960;2024-03-23T07:52:15;99669.20;;;8.38;90.19
75555;BME280;66087;53.126;17.960;2024-03-23T07:54:41;99667.50;;;8.45;90.05
75555;BME280;66087;53.126;17.960;2024-03-23T07:57:08;99666.09;;;8.46;90.00
75555;BME280;66087;53.126;17.960;2024-03-23T07:59:35;99663.98;;;8.48;90.14
75555;BME280;66087;53.126;17.960;2024-03-23T08:02:02;99662.38;;;8.50;90.13
75555;BME280;66087;53.126;17.960;2024-03-23T08:04:29;99658.11;;;8.50;89.90
75555;BME280;66087;53.126;17.960;2024-03-23T08:06:57;99650.85;;;8.50;89.69
75555;BME280;66087;53.126;17.960;2024-03-23T08:09:25;99641.83;;;8.48;89.74
75555;BME280;66087;53.126;17.960;2024-03-23T08:11:52;99635.98;;;8.45;89.67
75555;BME280;66087;53.126;17.960;2024-03-23T08:14:18;99636.73;;;8.43;89.82
75555;BME280;66087;53.126;17.960;2024-03-23T08:16:46;99636.22;;;8.42;89.63
75555;BME280;66087;53.126;17.960;2024-03-23T08:19:15;99638.27;;;8.40;89.31
75555;BME280;66087;53.126;17.960;2024-03-23T08:21:41;99634.41;;;8.39;89.34
75555;BME280;66087;53.126;17.960;2024-03-23T08:24:08;99626.98;;;8.40;88.77
75555;BME280;66087;53.126;17.960;2024-03-23T08:26:35;99623.97;;;8.40;88.68
75555;BME280;66087;53.126;17.960;2024-03-23T08:29:03;99625.58;;;8.36;88.85
75555;BME280;66087;53.126;17.960;2024-03-23T08:31:31;99620.41;;;8.32;88.94
75555;BME280;66087;53.126;17.960;2024-03-23T08:33:58;99617.80;;;8.30;89.15
75555;BME280;66087;53.126;17.960;2024-03-23T08:36:24;99621.31;;;8.29;88.77
75555;BME280;66087;53.126;17.960;2024-03-23T08:38:51;99623.84;;;8.25;88.46
75555;BME280;66087;53.126;17.960;2024-03-23T08:41:22;99614.97;;;8.20;88.33
75555;BME280;66087;53.126;17.960;2024-03-23T08:43:51;99609.95;;;8.16;88.28
75555;BME280;66087;53.126;17.960;2024-03-23T08:46:18;99609.61;;;8.13;88.04
75555;BME280;66087;53.126;17.960;2024-03-23T08:48:46;99616.71;;;8.10;87.95
75555;BME280;66087;53.126;17.960;2024-03-23T08:51:15;99628.23;;;8.05;88.01
75555;BME280;66087;53.126;17.960;2024-03-23T08:53:42;99628.33;;;8.01;88.08
75555;BME280;66087;53.126;17.960;2024-03-23T08:56:15;99623.13;;;7.97;87.94
75555;BME280;66087;53.126;17.960;2024-03-23T08:58:42;99612.82;;;7.94;87.80
75555;BME280;66087;53.126;17.960;2024-03-23T09:01:10;99608.09;;;7.99;87.82
75555;BME280;66087;53.126;17.960;2024-03-23T09:03:39;99594.29;;;8.06;87.68
75555;BME280;66087;53.126;17.960;2024-03-23T09:06:08;99589.08;;;8.15;87.88
75555;BME280;66087;53.126;17.960;2024-03-23T09:08:35;99581.08;;;8.20;87.56
75555;BME280;66087;53.126;17.960;2024-03-23T09:11:05;99570.28;;;8.26;87.48
75555;BME280;66087;53.126;17.960;2024-03-23T09:13:35;99561.73;;;8.29;87.18
75555;BME280;66087;53.126;17.960;2024-03-23T09:16:05;99568.55;;;8.32;87.43
75555;BME280;66087;53.126;17.960;2024-03-23T09:18:33;99569.64;;;8.35;87.05
75555;BME280;66087;53.126;17.960;2024-03-23T09:21:03;99568.81;;;8.38;87.11
75555;BME280;66087;53.126;17.960;2024-03-23T09:23:30;99570.27;;;8.45;86.87
75555;BME280;66087;53.126;17.960;2024-03-23T09:25:57;99572.11;;;8.43;86.54
75555;BME280;66087;53.126;17.960;2024-03-23T09:28:23;99568.50;;;8.34;85.92
75555;BME280;66087;53.126;17.960;2024-03-23T09:30:50;99558.86;;;8.29;85.80
75555;BME280;66087;53.126;17.960;2024-03-23T09:33:17;99556.58;;;8.26;85.72
75555;BME280;66087;53.126;17.960;2024-03-23T09:35:46;99552.36;;;8.24;85.57
75555;BME280;66087;53.126;17.960;2024-03-23T09:38:13;99541.05;;;8.24;85.26
75555;BME280;66087;53.126;17.960;2024-03-23T09:40:41;99535.81;;;8.28;85.23
75555;BME280;66087;53.126;17.960;2024-03-23T09:43:09;99535.27;;;8.28;85.13
75555;BME280;66087;53.126;17.960;2024-03-23T09:45:39;99529.23;;;8.36;85.18
75555;BME280;66087;53.126;17.960;2024-03-23T09:48:08;99535.80;;;8.39;84.70
75555;BME280;66087;53.126;17.960;2024-03-23T09:50:38;99534.05;;;8.35;84.73
75555;BME280;66087;53.126;17.960;2024-03-23T09:53:06;99527.96;;;8.34;84.74
75555;BME280;66087;53.126;17.960;2024-03-23T09:55:35;99529.56;;;8.31;84.81
75555;BME280;66087;53.126;17.960;2024-03-23T09:58:02;99526.15;;;8.27;84.94
75555;BME280;66087;53.126;17.960;2024-03-23T10:00:32;99518.72;;;8.27;84.49
75555;BME280;66087;53.126;17.960;2024-03-23T10:03:01;99520.10;;;8.28;84.66
75555;BME280;66087;53.126;17.960;2024-03-23T10:05:29;99516.23;;;8.32;84.76
75555;BME280;66087;53.126;17.960;2024-03-23T10:07:58;99522.07;;;8.42;84.40
75555;BME280;66087;53.126;17.960;2024-03-23T10:10:25;99522.82;;;8.49;84.07
75555;BME280;66087;53.126;17.960;2024-03-23T10:12:52;99515.70;;;8.60;83.80
75555;BME280;66087;53.126;17.960;2024-03-23T10:15:21;99512.58;;;8.64;83.79
75555;BME280;66087;53.126;17.960;2024-03-23T10:17:48;99511.79;;;8.68;83.73
75555;BME280;66087;53.126;17.960;2024-03-23T10:20:23;99505.96;;;8.72;83.20
75555;BME280;66087;53.126;17.960;2024-03-23T10:22:50;99513.36;;;8.67;83.67
75555;BME280;66087;53.126;17.960;2024-03-23T10:25:22;99510.98;;;8.60;83.51
75555;BME280;66087;53.126;17.960;2024-03-23T10:27:59;99501.34;;;8.58;83.88
75555;BME280;66087;53.126;17.960;2024-03-23T10:30:27;99494.66;;;8.52;83.14
75555;BME280;66087;53.126;17.960;2024-03-23T10:33:07;99493.31;;;8.40;82.81
75555;BME280;66087;53.126;17.960;2024-03-23T10:35:34;99497.05;;;8.35;83.42
75555;BME280;66087;53.126;17.960;2024-03-23T10:38:04;99491.20;;;8.37;83.44
75555;BME280;66087;53.126;17.960;2024-03-23T10:40:31;99486.74;;;8.39;83.67
75555;BME280;66087;53.126;17.960;2024-03-23T10:43:03;99487.15;;;8.39;83.62
75555;BME280;66087;53.126;17.960;2024-03-23T10:45:33;99482.48;;;8.40;83.49
75555;BME280;66087;53.126;17.960;2024-03-23T10:48:00;99482.02;;;8.43;83.35
75555;BME280;66087;53.126;17.960;2024-03-23T10:50:27;99475.95;;;8.52;83.15
75555;BME280;66087;53.126;17.960;2024-03-23T10:52:54;99463.16;;;8.62;83.06
75555;BME280;66087;53.126;17.960;2024-03-23T10:55:26;99458.51;;;8.72;82.89
75555;BME280;66087;53.126;17.960;2024-03-23T10:57:55;99457.84;;;8.77;82.01
75555;BME280;66087;53.126;17.960;2024-03-23T11:00:25;99451.55;;;8.77;81.54
75555;BME280;66087;53.126;17.960;2024-03-23T11:02:52;99449.84;;;8.72;80.93
75555;BME280;66087;53.126;17.960;2024-03-23T11:05:29;99436.95;;;8.70;81.70
75555;BME280;66087;53.126;17.960;2024-03-23T11:07:57;99430.58;;;8.74;80.87
75555;BME280;66087;53.126;17.960;2024-03-23T11:10:26;99424.39;;;8.80;81.56
75555;BME280;66087;53.126;17.960;2024-03-23T11:12:57;99426.58;;;8.91;81.46
75555;BME280;66087;53.126;17.960;2024-03-23T11:15:24;99414.19;;;9.00;81.65
75555;BME280;66087;53.126;17.960;2024-03-23T11:18:02;99407.82;;;9.07;81.07
75555;BME280;66087;53.126;17.960;2024-03-23T11:20:32;99413.03;;;9.00;81.20
75555;BME280;66087;53.126;17.960;2024-03-23T11:22:59;99418.93;;;8.96;80.94
75555;BME280;66087;53.126;17.960;2024-03-23T11:25:27;99421.48;;;8.93;80.90
75555;BME280;66087;53.126;17.960;2024-03-23T11:27:57;99415.20;;;8.88;80.38
75555;BME280;66087;53.126;17.960;2024-03-23T11:30:26;99408.27;;;8.86;80.63
75555;BME280;66087;53.126;17.960;2024-03-23T11:32:56;99408.65;;;8.80;80.94
75555;BME280;66087;53.126;17.960;2024-03-23T11:35:28;99407.52;;;8.82;81.02
75555;BME280;66087;53.126;17.960;2024-03-23T11:40:49;99396.20;;;8.83;80.84
75555;BME280;66087;53.126;17.960;2024-03-23T11:43:17;99395.70;;;8.87;81.09
75555;BME280;66087;53.126;17.960;2024-03-23T11:45:47;99392.49;;;8.88;80.95
75555;BME280;66087;53.126;17.960;2024-03-23T11:48:18;99394.60;;;8.79;80.32
75555;BME280;66087;53.126;17.960;2024-03-23T11:50:47;99393.89;;;8.71;80.80
75555;BME280;66087;53.126;17.960;2024-03-23T11:53:20;99391.39;;;8.65;80.83
75555;BME280;66087;53.126;17.960;2024-03-23T11:55:51;99386.89;;;8.56;80.74
75555;BME280;66087;53.126;17.960;2024-03-23T11:58:21;99383.67;;;8.48;81.15
75555;BME280;66087;53.126;17.960;2024-03-23T12:00:59;99375.77;;;8.45;81.32
75555;BME280;66087;53.126;17.960;2024-03-23T12:03:27;99363.63;;;8.49;81.09
75555;BME280;66087;53.126;17.960;2024-03-23T12:05:59;99362.50;;;8.50;80.96
75555;BME280;66087;53.126;17.960;2024-03-23T12:08:35;99359.01;;;8.51;81.12
75555;BME280;66087;53.126;17.960;2024-03-23T12:11:08;99345.30;;;8.51;81.10
75555;BME280;66087;53.126;17.960;2024-03-23T12:13:36;99339.27;;;8.50;80.98
75555;BME280;66087;53.126;17.960;2024-03-23T12:16:13;99325.04;;;8.41;80.98
75555;BME280;66087;53.126;17.960;2024-03-23T12:18:42;99335.30;;;8.48;81.58
75555;BME280;66087;53.126;17.960;2024-03-23T12:21:09;99334.39;;;8.48;81.54
75555;BME280;66087;53.126;17.960;2024-03-23T12:23:39;99340.15;;;8.43;81.91
75555;BME280;66087;53.126;17.960;2024-03-23T12:26:06;99348.21;;;8.36;82.00
75555;BME280;66087;53.126;17.960;2024-03-23T12:28:35;99360.48;;;8.27;81.81
75555;BME280;66087;53.126;17.960;2024-03-23T12:31:03;99360.55;;;8.18;82.04
75555;BME280;66087;53.126;17.960;2024-03-23T12:33:31;99355.13;;;8.15;82.28
75555;BME280;66087;53.126;17.960;2024-03-23T12:35:58;99341.66;;;8.12;82.40
75555;BME280;66087;53.126;17.960;2024-03-23T12:38:24;99317.38;;;8.12;82.23
75555;BME280;66087;53.126;17.960;2024-03-23T12:40:52;99302.83;;;8.12;82.07
75555;BME280;66087;53.126;17.960;2024-03-23T12:43:19;99304.75;;;8.09;82.04
75555;BME280;66087;53.126;17.960;2024-03-23T12:45:48;99314.63;;;8.04;82.39
75555;BME280;66087;53.126;17.960;2024-03-23T12:48:16;99311.65;;;7.95;82.46
75555;BME280;66087;53.126;17.960;2024-03-23T12:50:44;99306.53;;;7.86;82.57
75555;BME280;66087;53.126;17.960;2024-03-23T12:53:10;99301.59;;;7.79;82.72
75555;BME280;66087;53.126;17.960;2024-03-23T12:55:39;99293.55;;;7.73;82.78
75555;BME280;66087;53.126;17.960;2024-03-23T12:58:05;99278.50;;;7.69;82.65
75555;BME280;66087;53.126;17.960;2024-03-23T13:00:32;99270.63;;;7.61;82.68
75555;BME280;66087;53.126;17.960;2024-03-23T13:02:58;99259.52;;;7.57;82.99
75555;BME280;66087;53.126;17.960;2024-03-23T13:05:25;99244.68;;;7.57;83.24
75555;BME280;66087;53.126;17.960;2024-03-23T13:07:52;99226.36;;;7.64;83.10
75555;BME280;66087;53.126;17.960;2024-03-23T13:10:18;99226.60;;;7.63;83.23
75555;BME280;66087;53.126;17.960;2024-03-23T13:12:45;99234.71;;;7.49;83.53
75555;BME280;66087;53.126;17.960;2024-03-23T13:15:12;99242.73;;;7.37;83.54
75555;BME280;66087;53.126;17.960;2024-03-23T13:17:38;99250.41;;;7.32;83.27
75555;BME280;66087;53.126;17.960;2024-03-23T13:20:06;99251.36;;;7.27;82.84
75555;BME280;66087;53.126;17.960;2024-03-23T13:22:32;99263.48;;;7.21;82.88
75555;BME280;66087;53.126;17.960;2024-03-23T13:24:59;99260.73;;;7.16;82.98
75555;BME280;66087;53.126;17.960;2024-03-23T13:27:26;99264.88;;;7.13;82.79
75555;BME280;66087;53.126;17.960;2024-03-23T13:29:54;99268.09;;;7.07;82.72
75555;BME280;66087;53.126;17.960;2024-03-23T13:32:21;99270.83;;;7.02;82.77
75555;BME280;66087;53.126;17.960;2024-03-23T13:34:48;99273.88;;;6.96;82.71
75555;BME280;66087;53.126;17.960;2024-03-23T13:37:16;99272.33;;;6.92;82.60
75555;BME280;66087;53.126;17.960;2024-03-23T13:39:43;99273.80;;;6.88;82.68
75555;BME280;66087;53.126;17.960;2024-03-23T13:42:10;99279.42;;;6.85;82.51
75555;BME280;66087;53.126;17.960;2024-03-23T13:44:39;99284.83;;;6.81;82.60
75555;BME280;66087;53.126;17.960;2024-03-23T13:47:06;99284.31;;;6.80;82.53
75555;BME280;66087;53.126;17.960;2024-03-23T13:49:33;99278.92;;;6.75;82.45
75555;BME280;66087;53.126;17.960;2024-03-23T13:52:00;99279.18;;;6.69;82.62
75555;BME280;66087;53.126;17.960;2024-03-23T13:54:27;99283.69;;;6.64;82.97
75555;BME280;66087;53.126;17.960;2024-03-23T13:56:55;99290.40;;;6.60;82.93
75555;BME280;66087;53.126;17.960;2024-03-23T13:59:23;99308.64;;;6.55;83.17